createdAt,value
2022-11-16T00:02:19.349Z,99938.91
2022-11-16T00:04:47.182Z,99945.63
2022-11-16T00:07:15.236Z,99932.63
2022-11-16T00:09:42.998Z,99936.03
2022-11-16T00:12:12.952Z,99933.56
2022-11-16T00:14:40.716Z,99934.03
2022-11-16T00:17:08.704Z,99939.22
2022-11-16T00:19:36.441Z,99935.25
2022-11-16T00:22:04.638Z,99941.00
2022-11-16T00:24:32.384Z,99931.78
2022-11-16T00:27:00.343Z,99926.50
2022-11-16T00:29:28.412Z,99932.19
2022-11-16T00:31:56.724Z,99932.13
2022-11-16T00:34:24.768Z,99931.09
2022-11-16T00:36:52.904Z,99921.59
2022-11-16T00:39:21.098Z,99920.09
2022-11-16T00:41:49.560Z,99918.97
2022-11-16T00:44:18.932Z,99921.50
2022-11-16T00:46:47.031Z,99919.22
2022-11-16T00:49:14.796Z,99919.44
2022-11-16T00:51:42.841Z,99914.94
2022-11-16T00:54:11.144Z,99916.59
2022-11-16T00:56:39.862Z,99913.09
2022-11-16T00:59:08.209Z,99910.44
2022-11-16T01:01:36.350Z,99911.78
2022-11-16T01:04:04.317Z,99904.56
2022-11-16T01:06:32.371Z,99908.03
2022-11-16T01:09:01.784Z,99916.59
2022-11-16T01:11:48.497Z,99910.66
2022-11-16T01:14:16.686Z,99903.63
2022-11-16T01:16:44.931Z,99904.44
2022-11-16T01:19:12.638Z,99905.63
2022-11-16T01:21:40.777Z,99903.84
2022-11-16T01:24:08.607Z,99905.84
2022-11-16T01:26:36.647Z,99910.06
2022-11-16T01:29:04.784Z,99909.75
2022-11-16T01:31:36.917Z,99909.66
2022-11-16T01:34:05.869Z,99900.38
2022-11-16T01:36:36.701Z,99907.06
2022-11-16T01:39:05.959Z,99898.88
2022-11-16T01:41:45.645Z,99895.31
2022-11-16T01:44:32.573Z,99883.72
2022-11-16T01:47:12.384Z,99880.34
2022-11-16T01:49:58.249Z,99890.81
2022-11-16T01:52:33.864Z,99872.03
2022-11-16T01:55:04.071Z,99874.00
2022-11-16T01:57:46.240Z,99869.75
2022-11-16T02:00:15.192Z,99866.25
2022-11-16T02:02:51.056Z,99862.91
2022-11-16T02:05:50.916Z,99862.91
2022-11-16T02:09:05.321Z,99858.41
2022-11-16T02:11:42.246Z,99852.44
2022-11-16T02:14:42.070Z,99845.63
2022-11-16T02:17:42.447Z,99849.31
2022-11-16T02:20:30.338Z,99844.22
2022-11-16T02:23:38.284Z,99839.69
2022-11-16T02:26:55.469Z,99833.63
2022-11-16T02:29:31.482Z,99833.84
2022-11-16T02:32:07.537Z,99844.44
2022-11-16T02:34:48.858Z,99835.63
2022-11-16T02:37:20.322Z,99839.09
2022-11-16T02:39:52.064Z,99834.13
2022-11-16T02:42:30.414Z,99834.91
2022-11-16T02:44:59.742Z,99832.06
2022-11-16T02:47:33.289Z,99831.09
2022-11-16T02:50:11.292Z,99838.72
2022-11-16T02:52:39.658Z,99833.66
2022-11-16T02:55:10.468Z,99820.88
2022-11-16T02:58:11.207Z,99820.03
2022-11-16T03:00:48.237Z,99825.78
2022-11-16T03:03:42.076Z,99817.03
2022-11-16T03:06:31.926Z,99812.88
2022-11-16T03:09:08.615Z,99799.31
2022-11-16T03:12:03.107Z,99821.88
2022-11-16T03:14:43.827Z,99814.56
2022-11-16T03:17:50.872Z,99809.25
2022-11-16T03:20:26.956Z,99811.41
2022-11-16T03:22:57.540Z,99802.72
2022-11-16T03:25:31.755Z,99804.91
2022-11-16T03:28:36.695Z,99795.50
2022-11-16T03:31:28.022Z,99804.41
2022-11-16T03:34:00.997Z,99799.47
2022-11-16T03:36:38.719Z,99799.47
2022-11-16T03:39:15.707Z,99803.03
2022-11-16T03:41:48.437Z,99792.69
2022-11-16T03:44:19.220Z,99796.91
2022-11-16T03:46:48.178Z,99794.13
2022-11-16T03:49:20.274Z,99787.38
2022-11-16T03:51:49.420Z,99789.78
2022-11-16T03:54:17.507Z,99784.31
2022-11-16T03:56:45.698Z,99775.84
2022-11-16T03:59:13.559Z,99777.38
2022-11-16T04:01:44.773Z,99771.09
2022-11-16T04:04:34.352Z,99773.53
2022-11-16T04:07:21.168Z,99767.91
2022-11-16T04:10:07.724Z,99769.72
2022-11-16T04:12:54.150Z,99774.97
2022-11-16T04:15:40.093Z,99775.28
2022-11-16T04:18:28.948Z,99768.63
2022-11-16T04:21:15.721Z,99775.53
2022-11-16T04:24:20.414Z,99771.00
2022-11-16T04:27:11.569Z,99772.19
2022-11-16T04:29:41.180Z,99764.16
2022-11-16T04:32:28.697Z,99771.97
2022-11-16T04:35:15.464Z,99765.84
2022-11-16T04:37:50.034Z,99770.16
2022-11-16T04:40:25.766Z,99768.16
2022-11-16T04:42:59.048Z,99762.25
2022-11-16T04:45:48.649Z,99771.88
2022-11-16T04:48:20.331Z,99761.66
2022-11-16T04:50:51.709Z,99771.88
2022-11-16T04:53:22.572Z,99757.78
2022-11-16T04:56:00.749Z,99748.94
2022-11-16T04:58:29.782Z,99749.66
2022-11-16T05:00:59.718Z,99742.03
2022-11-16T05:03:27.842Z,99740.13
2022-11-16T05:05:56.842Z,99744.88
2022-11-16T05:08:25.491Z,99744.78
2022-11-16T05:10:54.856Z,99752.06
2022-11-16T05:13:22.722Z,99747.31
2022-11-16T05:15:52.093Z,99757.84
2022-11-16T05:18:19.710Z,99754.13
2022-11-16T05:21:00.447Z,99758.59
2022-11-16T05:23:48.717Z,99752.78
2022-11-16T05:26:20.125Z,99762.09
2022-11-16T05:28:47.963Z,99757.63
2022-11-16T05:31:15.848Z,99754.06
2022-11-16T05:33:44.128Z,99752.13
2022-11-16T05:36:13.837Z,99754.13
2022-11-16T05:38:41.508Z,99755.91
2022-11-16T05:41:09.372Z,99758.50
2022-11-16T05:43:37.260Z,99761.56
2022-11-16T05:46:14.553Z,99767.69
2022-11-16T05:48:42.295Z,99766.31
2022-11-16T05:51:10.154Z,99767.88
2022-11-16T05:53:37.726Z,99764.03
2022-11-16T05:56:07.343Z,99757.63
2022-11-16T05:58:38.490Z,99754.13
2022-11-16T06:01:07.053Z,99764.34
2022-11-16T06:03:36.352Z,99757.44
2022-11-16T06:06:05.716Z,99756.44
2022-11-16T06:08:33.813Z,99766.66
2022-11-16T06:11:07.938Z,99758.91
2022-11-16T06:13:37.578Z,99764.03
2022-11-16T06:16:07.149Z,99761.34
2022-11-16T06:18:44.855Z,99762.63
2022-11-16T06:21:16.669Z,99760.09
2022-11-16T06:23:45.374Z,99755.66
2022-11-16T06:26:13.641Z,99755.50
2022-11-16T06:28:41.449Z,99758.72
2022-11-16T06:31:09.930Z,99763.88
2022-11-16T06:33:41.699Z,99766.41
2022-11-16T06:36:16.651Z,99767.28
2022-11-16T06:38:44.474Z,99775.97
2022-11-16T06:41:13.673Z,99775.31
2022-11-16T06:43:45.972Z,99781.47
2022-11-16T06:46:15.910Z,99775.31
2022-11-16T06:48:43.587Z,99778.72
2022-11-16T06:51:14.404Z,99776.00
2022-11-16T06:53:42.191Z,99776.00
2022-11-16T06:56:15.076Z,99770.69
2022-11-16T06:58:53.489Z,99775.41
2022-11-16T07:01:22.815Z,99771.81
2022-11-16T07:03:53.124Z,99775.38
2022-11-16T07:06:21.084Z,99772.56
2022-11-16T07:08:48.862Z,99771.81
2022-11-16T07:11:20.571Z,99763.28
2022-11-16T07:13:49.286Z,99765.00
2022-11-16T07:16:17.651Z,99761.97
2022-11-16T07:18:52.788Z,99755.09
2022-11-16T07:21:20.858Z,99756.06
2022-11-16T07:23:48.897Z,99757.84
2022-11-16T07:26:20.776Z,99764.84
2022-11-16T07:28:53.954Z,99752.66
2022-11-16T07:31:23.999Z,99760.69
2022-11-16T07:34:11.756Z,99754.81
2022-11-16T07:36:48.526Z,99754.34
2022-11-16T07:39:18.139Z,99754.19
2022-11-16T07:41:47.098Z,99750.53
2022-11-16T07:44:28.581Z,99743.38
2022-11-16T07:47:07.172Z,99755.31
2022-11-16T07:49:36.679Z,99744.66
2022-11-16T07:52:10.732Z,99747.38
2022-11-16T07:54:52.333Z,99743.06
2022-11-16T07:57:22.940Z,99744.22
2022-11-16T07:59:52.133Z,99742.78
2022-11-16T08:02:20.102Z,99744.03
2022-11-16T08:04:50.475Z,99748.38
2022-11-16T08:07:21.318Z,99744.91
2022-11-16T08:09:53.999Z,99739.00
2022-11-16T08:12:23.117Z,99745.09
2022-11-16T08:14:50.753Z,99735.50
2022-11-16T08:17:18.831Z,99744.13
2022-11-16T08:19:46.496Z,99736.38
2022-11-16T08:22:16.750Z,99731.94
2022-11-16T08:24:45.962Z,99732.03
2022-11-16T08:27:17.027Z,99725.56
2022-11-16T08:29:47.382Z,99733.16
2022-11-16T08:32:15.622Z,99738.34
2022-11-16T08:34:44.379Z,99729.88
2022-11-16T08:37:12.299Z,99726.28
2022-11-16T08:39:43.906Z,99732.09
2022-11-16T08:42:11.966Z,99736.53
2022-11-16T08:44:40.831Z,99738.84
2022-11-16T08:47:14.016Z,99739.00
2022-11-16T08:49:49.687Z,99740.63
2022-11-16T08:52:18.975Z,99736.28
2022-11-16T08:54:47.347Z,99736.19
2022-11-16T08:57:16.764Z,99745.25
2022-11-16T08:59:46.544Z,99724.78
2022-11-16T09:02:15.224Z,99751.38
2022-11-16T09:04:43.864Z,99742.13
2022-11-16T09:07:11.774Z,99740.66
2022-11-16T09:09:39.445Z,99744.84
2022-11-16T09:12:07.402Z,99742.25
2022-11-16T09:14:34.995Z,99733.66
2022-11-16T09:17:03.526Z,99741.16
2022-11-16T09:19:31.100Z,99736.97
2022-11-16T09:21:58.898Z,99730.53
2022-11-16T09:24:26.554Z,99735.19
2022-11-16T09:26:56.784Z,99733.78
2022-11-16T09:29:24.464Z,99727.50
2022-11-16T09:31:52.389Z,99726.78
2022-11-16T09:34:20.060Z,99726.31
2022-11-16T09:36:47.974Z,99731.81
2022-11-16T09:39:32.032Z,99732.59
2022-11-16T09:42:29.213Z,99726.78
2022-11-16T09:45:42.941Z,99726.88
2022-11-16T09:48:13.939Z,99719.78
2022-11-16T09:50:48.679Z,99718.88
2022-11-16T09:53:53.189Z,99709.28
2022-11-16T09:56:22.789Z,99705.78
2022-11-16T09:59:00.283Z,99712.38
2022-11-16T10:01:46.185Z,99705.00
2022-11-16T10:04:51.416Z,99702.91
2022-11-16T10:07:27.658Z,99705.28
2022-11-16T10:09:56.520Z,99705.31
2022-11-16T10:12:43.691Z,99699.59
2022-11-16T10:15:30.177Z,99696.69
2022-11-16T10:18:18.993Z,99696.19
2022-11-16T10:21:14.399Z,99698.88
2022-11-16T10:24:35.748Z,99693.25
2022-11-16T10:27:22.046Z,99690.41
2022-11-16T10:30:18.895Z,99689.19
2022-11-16T10:33:09.680Z,99685.63
2022-11-16T10:35:46.915Z,99689.78
2022-11-16T10:38:17.526Z,99681.50
2022-11-16T10:40:52.046Z,99677.84
2022-11-16T10:43:28.875Z,99670.97
2022-11-16T10:46:05.483Z,99670.88
2022-11-16T10:48:45.137Z,99665.97
2022-11-16T10:51:12.704Z,99658.44
2022-11-16T10:53:43.903Z,99662.91
2022-11-16T10:56:21.871Z,99663.16
2022-11-16T10:58:58.687Z,99682.97
2022-11-16T11:01:57.810Z,99676.72
2022-11-16T11:04:29.084Z,99678.72
2022-11-16T11:06:59.281Z,99678.22
2022-11-16T11:09:30.589Z,99682.47
2022-11-16T11:12:40.192Z,99676.78
2022-11-16T11:15:27.149Z,99666.75
2022-11-16T11:18:19.424Z,99670.66
2022-11-16T11:21:07.914Z,99675.91
2022-11-16T11:23:51.332Z,99678.97
2022-11-16T11:26:36.252Z,99668.34
2022-11-16T11:29:22.532Z,99675.34
2022-11-16T11:31:59.366Z,99676.41
2022-11-16T11:34:30.657Z,99686.06
2022-11-16T11:37:05.106Z,99676.25
2022-11-16T11:39:37.235Z,99680.75
2022-11-16T11:42:14.425Z,99678.41
2022-11-16T11:44:54.559Z,99683.72
2022-11-16T11:47:56.805Z,99682.19
2022-11-16T11:50:53.179Z,99677.88
2022-11-16T11:53:47.479Z,99684.97
2022-11-16T11:56:15.673Z,99677.09
2022-11-16T11:58:44.643Z,99674.69
2022-11-16T12:01:39.926Z,99678.38
2022-11-16T12:04:28.829Z,99680.56
2022-11-16T12:07:21.530Z,99682.03
2022-11-16T12:10:07.609Z,99674.47
2022-11-16T12:12:56.683Z,99677.31
2022-11-16T12:16:09.237Z,99680.72
2022-11-16T12:18:39.372Z,99684.53
2022-11-16T12:21:27.796Z,99686.31
2022-11-16T12:23:55.313Z,99677.47
2022-11-16T12:26:29.121Z,99679.19
2022-11-16T12:29:20.707Z,99679.53
2022-11-16T12:32:16.083Z,99688.59
2022-11-16T12:34:52.576Z,99683.94
2022-11-16T12:37:35.219Z,99687.44
2022-11-16T12:40:34.750Z,99687.53
2022-11-16T12:43:29.327Z,99690.56
2022-11-16T12:46:11.617Z,99686.03
2022-11-16T12:48:55.242Z,99680.22
2022-11-16T12:51:46.664Z,99682.34
2022-11-16T12:54:17.365Z,99686.69
2022-11-16T12:57:11.876Z,99684.16
2022-11-16T12:59:54.629Z,99684.84
2022-11-16T13:02:33.816Z,99684.78
2022-11-16T13:05:13.238Z,99680.78
2022-11-16T13:07:48.313Z,99686.97
2022-11-16T13:10:34.359Z,99679.06
2022-11-16T13:13:41.351Z,99692.84
2022-11-16T13:16:00.595Z,99687.25
2022-11-16T13:18:29.934Z,99694.28
2022-11-16T13:21:07.593Z,99694.53
2022-11-16T13:23:48.094Z,99695.16
2022-11-16T13:26:30.440Z,99692.69
2022-11-16T13:29:04.464Z,99697.84
2022-11-16T13:31:48.279Z,99700.41
2022-11-16T13:34:30.068Z,99697.09
2022-11-16T13:36:58.481Z,99696.25
2022-11-16T13:39:47.814Z,99695.25
2022-11-16T13:42:16.918Z,99697.81
2022-11-16T13:44:50.290Z,99700.59
2022-11-16T13:47:27.407Z,99712.13
2022-11-16T13:50:16.736Z,99705.38
2022-11-16T13:53:36.374Z,99703.81
2022-11-16T13:55:41.754Z,99707.38
2022-11-16T13:58:13.445Z,99709.13
2022-11-16T14:00:41.750Z,99700.75
2022-11-16T14:03:18.694Z,99705.06
2022-11-16T14:05:51.488Z,99707.78
2022-11-16T14:08:25.047Z,99697.25
2022-11-16T14:10:52.721Z,99701.63
2022-11-16T14:13:48.433Z,99705.16
2022-11-16T14:16:25.264Z,99707.59
2022-11-16T14:18:55.584Z,99714.53
2022-11-16T14:21:35.853Z,99702.69
2022-11-16T14:24:09.604Z,99705.28
2022-11-16T14:26:49.496Z,99712.09
2022-11-16T14:29:34.565Z,99714.69
2022-11-16T14:32:04.506Z,99713.72
2022-11-16T14:34:47.306Z,99713.66
2022-11-16T14:37:28.326Z,99716.28
2022-11-16T14:40:05.660Z,99714.47
2022-11-16T14:42:54.432Z,99726.41
2022-11-16T14:45:28.372Z,99711.22
2022-11-16T14:48:15.296Z,99719.69
2022-11-16T14:50:46.897Z,99715.41
2022-11-16T14:53:19.112Z,99726.41
2022-11-16T14:55:47.538Z,99721.50
2022-11-16T14:58:23.342Z,99724.69
2022-11-16T15:01:04.953Z,99724.69
2022-11-16T15:03:38.941Z,99716.97
2022-11-16T15:06:08.645Z,99714.50
2022-11-16T15:08:44.755Z,99707.69
2022-11-16T15:11:24.499Z,99704.97
2022-11-16T15:13:52.219Z,99698.31
2022-11-16T15:16:21.253Z,99699.88
2022-11-16T15:18:59.505Z,99699.94
2022-11-16T15:21:28.020Z,99703.47
2022-11-16T15:26:44.320Z,99700.88
2022-11-16T15:29:19.871Z,99702.41
2022-11-16T15:31:48.723Z,99704.00
2022-11-16T15:34:18.741Z,99697.91
2022-11-16T15:36:48.132Z,99697.69
2022-11-16T15:39:27.885Z,99708.13
2022-11-16T15:42:02.107Z,99708.16
2022-11-16T15:44:31.985Z,99715.84
2022-11-16T15:47:00.588Z,99714.16
2022-11-16T15:49:37.985Z,99718.38
2022-11-16T15:52:06.278Z,99713.91
2022-11-16T15:54:55.657Z,99710.50
2022-11-16T15:57:24.955Z,99709.84
2022-11-16T15:59:55.316Z,99703.56
2022-11-16T16:02:27.599Z,99717.50
2022-11-16T16:04:55.606Z,99717.41
2022-11-16T16:07:44.069Z,99708.75
2022-11-16T16:10:20.030Z,99706.88
2022-11-16T16:12:51.351Z,99722.53
2022-11-16T16:15:36.789Z,99711.38
2022-11-16T16:18:35.986Z,99711.47
2022-11-16T16:21:04.072Z,99726.19
2022-11-16T16:23:32.193Z,99727.78
2022-11-16T16:26:04.080Z,99720.88
2022-11-16T16:28:31.981Z,99711.22
2022-11-16T16:30:59.558Z,99714.59
2022-11-16T16:33:28.673Z,99718.34
2022-11-16T16:35:56.361Z,99725.22
2022-11-16T16:38:24.270Z,99726.13
2022-11-16T16:40:51.801Z,99727.91
2022-11-16T16:43:19.626Z,99732.03
2022-11-16T16:45:47.303Z,99719.09
2022-11-16T16:48:15.173Z,99718.31
2022-11-16T16:50:42.733Z,99721.63
2022-11-16T16:53:14.673Z,99721.63
2022-11-16T16:55:43.462Z,99726.63
2022-11-16T16:58:13.654Z,99728.44
2022-11-16T17:00:42.599Z,99736.25
2022-11-16T17:03:11.197Z,99734.22
2022-11-16T17:05:39.303Z,99730.69
2022-11-16T17:08:07.365Z,99728.88
2022-11-16T17:10:38.843Z,99733.25
2022-11-16T17:13:06.816Z,99734.91
2022-11-16T17:15:34.421Z,99739.44
2022-11-16T17:18:02.627Z,99739.50
2022-11-16T17:20:30.360Z,99744.47
2022-11-16T17:22:58.304Z,99733.31
2022-11-16T17:25:25.900Z,99738.56
2022-11-16T17:27:53.705Z,99742.06
2022-11-16T17:30:21.246Z,99743.00
2022-11-16T17:32:49.214Z,99748.19
2022-11-16T17:35:16.868Z,99745.72
2022-11-16T17:37:44.777Z,99740.41
2022-11-16T17:40:12.769Z,99736.63
2022-11-16T17:42:40.825Z,99745.91
2022-11-16T17:45:08.741Z,99749.34
2022-11-16T17:47:36.548Z,99740.75
2022-11-16T17:50:04.605Z,99743.28
2022-11-16T17:52:32.477Z,99743.31
2022-11-16T17:55:00.059Z,99741.53
2022-11-16T17:57:28.012Z,99746.78
2022-11-16T17:59:55.589Z,99741.63
2022-11-16T18:02:23.485Z,99739.91
2022-11-16T18:04:51.613Z,99738.16
2022-11-16T18:07:19.686Z,99736.41
2022-11-16T18:09:47.473Z,99738.03
2022-11-16T18:12:15.338Z,99739.81
2022-11-16T18:14:59.935Z,99738.97
2022-11-16T18:17:31.881Z,99740.44
2022-11-16T18:19:59.494Z,99748.13
2022-11-16T18:22:27.369Z,99744.84
2022-11-16T18:24:54.988Z,99741.44
2022-11-16T18:27:23.152Z,99737.97
2022-11-16T18:29:50.786Z,99741.44
2022-11-16T18:32:18.628Z,99737.97
2022-11-16T18:34:46.324Z,99753.50
2022-11-16T18:37:14.237Z,99744.84
2022-11-16T18:39:41.872Z,99743.31
2022-11-16T18:42:12.121Z,99739.00
2022-11-16T18:44:39.738Z,99732.72
2022-11-16T18:47:07.585Z,99736.13
2022-11-16T18:49:35.358Z,99736.94
2022-11-16T18:52:03.283Z,99736.75
2022-11-16T18:54:30.841Z,99736.19
2022-11-16T18:56:58.742Z,99735.50
2022-11-16T18:59:26.373Z,99747.53
2022-11-16T19:01:54.263Z,99746.59
2022-11-16T19:04:21.912Z,99750.06
2022-11-16T19:06:49.749Z,99745.56
2022-11-16T19:09:17.337Z,99746.59
2022-11-16T19:11:45.380Z,99748.09
2022-11-16T19:14:13.449Z,99748.97
2022-11-16T19:16:49.078Z,99741.53
2022-11-16T19:19:21.698Z,99747.44
2022-11-16T19:21:49.713Z,99738.59
2022-11-16T19:24:17.250Z,99747.31
2022-11-16T19:26:45.145Z,99749.03
2022-11-16T19:29:12.776Z,99749.09
2022-11-16T19:31:40.717Z,99748.41
2022-11-16T19:34:10.952Z,99753.34
2022-11-16T19:36:39.225Z,99757.75
2022-11-16T19:39:07.085Z,99755.88
2022-11-16T19:41:34.946Z,99754.97
2022-11-16T19:44:02.717Z,99754.25
2022-11-16T19:46:32.572Z,99755.13
2022-11-16T19:49:00.700Z,99756.75
2022-11-16T19:51:31.352Z,99755.06
2022-11-16T19:54:00.556Z,99756.81
2022-11-16T19:56:28.884Z,99755.13
2022-11-16T19:58:56.498Z,99757.84
2022-11-16T20:01:28.709Z,99748.44
2022-11-16T20:03:58.882Z,99753.44
2022-11-16T20:06:29.439Z,99761.97
2022-11-16T20:09:01.073Z,99754.25
2022-11-16T20:11:31.565Z,99762.00
2022-11-16T20:13:59.833Z,99752.31
2022-11-16T20:16:34.075Z,99756.47
2022-11-16T20:19:05.132Z,99761.06
2022-11-16T20:21:36.235Z,99761.91
2022-11-16T20:24:07.125Z,99763.47
2022-11-16T20:26:37.490Z,99759.22
2022-11-16T20:29:05.136Z,99772.16
2022-11-16T20:31:33.878Z,99773.91
2022-11-16T20:34:04.259Z,99770.50
2022-11-16T20:36:33.653Z,99770.34
2022-11-16T20:39:01.872Z,99762.66
2022-11-16T20:41:32.184Z,99761.66
2022-11-16T20:44:01.621Z,99753.13
2022-11-16T20:46:32.792Z,99753.88
2022-11-16T20:49:03.867Z,99757.34
2022-11-16T20:51:31.806Z,99758.19
2022-11-16T20:53:59.519Z,99751.31
2022-11-16T20:56:27.571Z,99765.22
2022-11-16T20:58:55.449Z,99760.84
2022-11-16T21:01:30.939Z,99767.53
2022-11-16T21:04:04.499Z,99762.50
2022-11-16T21:06:32.734Z,99775.53
2022-11-16T21:09:01.276Z,99761.72
2022-11-16T21:11:30.960Z,99763.41
2022-11-16T21:14:16.933Z,99769.41
2022-11-16T21:16:44.857Z,99764.09
2022-11-16T21:19:12.808Z,99766.75
2022-11-16T21:21:41.347Z,99759.78
2022-11-16T21:24:09.846Z,99759.78
2022-11-16T21:26:38.129Z,99757.22
2022-11-16T21:29:06.649Z,99761.59
2022-11-16T21:31:36.453Z,99763.22
2022-11-16T21:34:05.771Z,99764.34
2022-11-16T21:36:34.191Z,99768.44
2022-11-16T21:39:02.009Z,99765.03
2022-11-16T21:41:29.914Z,99765.88
2022-11-16T21:43:57.691Z,99763.31
2022-11-16T21:46:27.135Z,99764.16
2022-11-16T21:48:56.683Z,99756.53
2022-11-16T21:51:26.793Z,99759.16
2022-11-16T21:53:54.928Z,99758.25
2022-11-16T21:56:25.366Z,99761.72
2022-11-16T21:58:53.966Z,99759.94
2022-11-16T22:01:23.973Z,99761.66
2022-11-16T22:04:10.654Z,99759.03
2022-11-16T22:06:57.079Z,99749.66
2022-11-16T22:09:24.703Z,99756.31
2022-11-16T22:14:58.448Z,99747.94
2022-11-16T22:17:27.197Z,99760.88
2022-11-16T22:19:55.378Z,99757.53
2022-11-16T22:22:24.074Z,99753.22
2022-11-16T22:24:51.978Z,99761.03
2022-11-16T22:27:20.158Z,99765.38
2022-11-16T22:29:47.857Z,99751.50
2022-11-16T22:32:15.844Z,99754.84
2022-11-16T22:34:43.586Z,99746.22
2022-11-16T22:37:11.586Z,99751.34
2022-11-16T22:39:39.469Z,99753.09
2022-11-16T22:42:07.493Z,99749.66
2022-11-16T22:44:35.410Z,99747.22
2022-11-16T22:47:03.579Z,99748.09
2022-11-16T22:49:31.323Z,99752.34
2022-11-16T22:51:59.270Z,99753.31
2022-11-16T22:54:28.826Z,99751.41
2022-11-16T22:56:57.108Z,99748.91
2022-11-16T22:59:24.780Z,99747.22
2022-11-16T23:01:52.838Z,99746.38
2022-11-16T23:04:20.593Z,99751.56
2022-11-16T23:06:49.644Z,99749.00
2022-11-16T23:09:17.435Z,99753.06
2022-11-16T23:12:20.547Z,99742.91
2022-11-16T23:15:06.949Z,99748.09
2022-11-16T23:17:34.990Z,99750.94
2022-11-16T23:20:21.780Z,99741.38
2022-11-16T23:23:08.429Z,99742.91
2022-11-16T23:25:55.429Z,99750.06
2022-11-16T23:28:23.476Z,99758.75
2022-11-16T23:30:51.223Z,99747.56
2022-11-16T23:33:39.194Z,99739.00
2022-11-16T23:36:07.335Z,99751.13
2022-11-16T23:38:35.330Z,99760.44
2022-11-16T23:41:23.067Z,99753.44
2022-11-16T23:44:00.648Z,99748.28
2022-11-16T23:46:30.349Z,99758.91
2022-11-16T23:48:59.143Z,99755.34
2022-11-16T23:51:27.259Z,99756.31
2022-11-16T23:53:55.896Z,99758.94
2022-11-16T23:56:24.431Z,99757.38
2022-11-16T23:58:57.400Z,99753.78
